Time;durP1;ratioP1;P1;durP2;ratioP2;P2;SDS_P1;SDS_P2;PMS_P1;PMS_P2;Temp;Humidity;BMP_temperature;BMP_pressure;BME280_temperature;BME280_humidity;BME280_pressure;Samples;Min_cycle;Max_cycle;Signal;HPM_P1;HPM_P2
2022/07/15 00:02:07;;;;;;;3.60;2.58;;;;;;;17.29;60.77;99479.09;4955388;29;20038;-92
2022/07/15 00:04:33;;;;;;;6.55;2.55;;;;;;;17.09;60.73;99462.19;4955184;28;20158;-92
2022/07/15 00:06:59;;;;;;;4.95;2.63;;;;;;;17.16;61.25;99484.44;4975544;28;20037;-92
2022/07/15 00:10:13;;;;;;;4.28;2.38;;;;;;;17.10;62.09;99479.63;4975199;28;20035;-92
2022/07/15 00:12:11;;;;;;;5.05;2.80;;;;;;;16.97;62.82;99473.63;4976151;28;20034;-92
2022/07/15 00:14:37;;;;;;;6.40;2.88;;;;;;;16.90;63.06;99477.72;4975525;28;20019;-91
2022/07/15 00:17:04;;;;;;;4.75;2.55;;;;;;;16.91;63.35;99493.38;4975941;28;20059;-92
2022/07/15 00:19:29;;;;;;;4.15;2.83;;;;;;;16.83;63.47;99500.16;4974364;28;20050;-93
2022/07/15 00:21:55;;;;;;;6.97;2.35;;;;;;;16.75;64.39;99500.72;4974362;28;20606;-92
2022/07/15 00:24:20;;;;;;;4.13;2.80;;;;;;;16.67;64.89;99493.38;4974075;28;20582;-92
2022/07/15 00:26:46;;;;;;;5.20;2.65;;;;;;;16.58;66.00;99504.56;4958260;28;20039;-92
2022/07/15 00:29:11;;;;;;;4.93;2.58;;;;;;;16.54;66.29;99510.16;4958143;28;20041;-92
2022/07/15 00:31:36;;;;;;;6.82;3.05;;;;;;;16.43;67.06;99505.69;4975261;28;20115;-92
2022/07/15 00:34:02;;;;;;;4.47;2.50;;;;;;;16.31;67.73;99504.81;4959076;28;20122;-92
2022/07/15 00:36:28;;;;;;;4.85;2.67;;;;;;;16.32;67.68;99513.53;4975061;28;20023;-91
2022/07/15 00:38:53;;;;;;;5.90;2.67;;;;;;;16.28;68.43;99518.16;4974574;28;20134;-92
2022/07/15 00:41:19;;;;;;;4.28;2.78;;;;;;;16.22;68.95;99518.59;4975026;28;20066;-92
2022/07/15 00:43:44;;;;;;;4.63;2.60;;;;;;;16.18;69.50;99511.88;4975175;28;20529;-92
2022/07/15 00:46:13;;;;;;;4.63;2.20;;;;;;;16.08;69.61;99503.00;4975169;28;20477;-93
2022/07/15 00:48:39;;;;;;;6.60;3.05;;;;;;;16.07;69.88;99512.66;4975136;28;20384;-92
2022/07/15 00:51:04;;;;;;;4.15;2.70;;;;;;;16.00;70.67;99513.19;4958635;28;20138;-92
2022/07/15 00:53:33;;;;;;;5.82;2.70;;;;;;;16.01;70.94;99522.75;4974820;28;20117;-93
2022/07/15 00:56:01;;;;;;;4.95;2.63;;;;;;;15.84;69.87;99505.56;4974845;28;20132;-92
2022/07/15 00:58:29;;;;;;;4.00;2.83;;;;;;;15.93;69.76;99533.84;4974723;28;20037;-92
2022/07/15 01:00:56;;;;;;;5.32;2.80;;;;;;;15.90;69.83;99532.25;4975107;28;20031;-93
2022/07/15 01:03:22;;;;;;;7.25;2.80;;;;;;;15.86;68.97;99522.06;4974853;28;20023;-92
2022/07/15 01:05:48;;;;;;;3.75;2.67;;;;;;;15.84;68.92;99537.06;4974931;28;20121;-91
2022/07/15 01:08:17;;;;;;;3.30;2.47;;;;;;;15.63;69.00;99511.38;4974711;28;20102;-93
2022/07/15 01:10:43;;;;;;;5.93;2.65;;;;;;;15.59;68.72;99506.41;4974704;28;20045;-92
2022/07/15 01:13:09;;;;;;;5.70;2.97;;;;;;;15.74;68.89;99536.91;4973261;28;20034;-92
2022/07/15 01:15:35;;;;;;;6.90;2.85;;;;;;;15.73;68.77;99542.25;4957309;28;20400;-92
2022/07/15 01:18:02;;;;;;;3.03;2.53;;;;;;;15.57;67.60;99517.03;4957493;28;20125;-92
2022/07/15 01:20:29;;;;;;;4.95;2.70;;;;;;;15.77;67.19;99549.81;4954136;29;20050;-92
2022/07/15 01:22:54;;;;;;;5.57;2.60;;;;;;;15.67;66.98;99523.38;4938428;29;20043;-92
2022/07/15 01:25:20;;;;;;;3.17;2.30;;;;;;;15.82;66.90;99541.63;4953977;29;20046;-92
2022/07/15 01:27:45;;;;;;;4.95;2.53;;;;;;;15.88;66.45;99541.16;4951557;29;20035;-92
2022/07/15 01:30:11;;;;;;;4.07;2.30;;;;;;;15.94;66.00;99544.22;4937942;29;20130;-93
2022/07/15 01:32:38;;;;;;;4.25;2.15;;;;;;;16.02;65.52;99555.97;4938089;29;20147;-92
2022/07/15 01:35:04;;;;;;;4.95;2.33;;;;;;;16.05;65.04;99553.13;4937568;29;20479;-92
2022/07/15 01:37:30;;;;;;;4.60;2.17;;;;;;;15.96;64.45;99534.44;4938183;29;20031;-92
2022/07/15 01:39:56;;;;;;;6.65;2.35;;;;;;;16.09;64.53;99549.31;4937982;29;20125;-92
2022/07/15 01:42:21;;;;;;;6.18;2.20;;;;;;;16.16;64.39;99559.28;4937744;29;20142;-91
2022/07/15 01:44:47;;;;;;;5.32;2.65;;;;;;;16.18;63.81;99559.19;4937709;29;20042;-92
2022/07/15 01:47:12;;;;;;;4.38;2.00;;;;;;;16.20;63.24;99562.56;4937737;29;20050;-92
2022/07/15 01:49:38;;;;;;;3.03;2.17;;;;;;;16.18;63.56;99560.03;4936993;29;20054;-92
2022/07/15 01:52:04;;;;;;;4.78;1.77;;;;;;;16.19;63.18;99566.13;4952831;28;20097;-92
2022/07/15 01:54:32;;;;;;;3.22;1.77;;;;;;;16.19;63.01;99566.13;4974046;28;20041;-92
2022/07/15 01:57:18;;;;;;;4.85;2.30;;;;;;;16.18;63.24;99570.56;4972982;28;20042;-91
2022/07/15 01:59:43;;;;;;;5.03;1.83;;;;;;;16.16;62.77;99567.19;4972648;28;20043;-91
2022/07/15 02:02:08;;;;;;;6.28;2.65;;;;;;;15.96;63.19;99534.44;4956642;28;20185;-92
2022/07/15 02:04:34;;;;;;;5.70;2.10;;;;;;;15.93;63.09;99537.28;4989215;28;20031;-91
2022/07/15 02:07:00;;;;;;;3.42;1.85;;;;;;;16.12;63.27;99572.75;4972864;28;20197;-92
2022/07/15 02:09:25;;;;;;;3.88;1.80;;;;;;;15.75;63.54;99522.81;4988995;28;20039;-92
2022/07/15 02:11:51;;;;;;;6.88;2.00;;;;;;;16.00;64.09;99571.84;4956908;28;20562;-92
2022/07/15 02:14:17;;;;;;;5.63;2.10;;;;;;;15.82;64.35;99552.13;4988706;28;20090;-92
2022/07/15 02:16:42;;;;;;;3.95;1.85;;;;;;;15.94;64.41;99574.91;4988817;28;20498;-92
2022/07/15 02:19:08;;;;;;;1.98;1.40;;;;;;;15.77;64.75;99554.22;4989044;28;20027;-92
2022/07/15 02:21:34;;;;;;;5.07;1.70;;;;;;;15.85;64.85;99575.56;4956939;28;20065;-92
2022/07/15 02:24:00;;;;;;;4.68;2.15;;;;;;;15.87;65.14;99578.91;4989009;28;20231;-92
2022/07/15 02:26:25;;;;;;;3.88;2.00;;;;;;;15.82;65.43;99584.47;4956529;28;20137;-91
2022/07/15 02:28:51;;;;;;;8.65;2.05;;;;;;;15.81;65.43;99584.59;4973283;28;20172;-92
2022/07/15 02:31:17;;;;;;;5.00;1.48;;;;;;;15.76;65.70;99586.66;4973437;28;20031;-92
2022/07/15 02:33:43;;;;;;;2.72;1.90;;;;;;;15.70;66.04;99586.16;4973872;28;20594;-92
2022/07/15 02:36:09;;;;;;;3.55;1.50;;;;;;;15.64;65.87;99591.84;4957458;28;20031;-91
2022/07/15 02:38:35;;;;;;;3.78;1.73;;;;;;;15.64;66.07;99597.09;4974821;28;20625;-93
2022/07/15 02:41:00;;;;;;;3.55;1.70;;;;;;;15.62;66.28;99598.94;4973801;28;20185;-92
2022/07/15 02:43:25;;;;;;;3.63;1.80;;;;;;;15.54;66.31;99582.03;4957165;28;20030;-92
2022/07/15 02:45:51;;;;;;;4.40;2.03;;;;;;;15.54;66.57;99601.22;4957810;28;20117;-92
2022/07/15 02:48:16;;;;;;;4.47;1.80;;;;;;;15.53;66.74;99603.97;4957424;28;20027;-92
2022/07/15 02:50:42;;;;;;;4.20;1.80;;;;;;;15.50;67.39;99604.16;4989825;28;20387;-92
2022/07/15 02:53:08;;;;;;;4.10;1.70;;;;;;;15.43;67.61;99603.75;4973352;28;20478;-92
2022/07/15 02:55:34;;;;;;;2.47;1.50;;;;;;;15.27;67.50;99582.13;4973244;28;20113;-91
2022/07/15 02:57:59;;;;;;;3.55;2.17;;;;;;;15.42;67.50;99607.31;4973485;28;20062;-91
2022/07/15 03:00:26;;;;;;;4.15;1.80;;;;;;;15.35;67.43;99606.91;4973598;28;20045;-92
2022/07/15 03:02:51;;;;;;;2.88;1.55;;;;;;;15.36;67.63;99612.97;4977208;28;20027;-92
2022/07/15 03:05:17;;;;;;;3.45;1.80;;;;;;;15.33;67.96;99611.38;4975605;28;20049;-92
2022/07/15 03:07:44;;;;;;;3.15;1.70;;;;;;;15.07;68.11;99581.66;4959717;28;20137;-91
2022/07/15 03:10:10;;;;;;;3.97;2.30;;;;;;;15.25;68.29;99624.19;4959450;28;20038;-91
2022/07/15 03:12:36;;;;;;;4.82;1.70;;;;;;;15.25;68.51;99618.09;4959624;28;20034;-92
2022/07/15 03:15:03;;;;;;;6.00;1.98;;;;;;;15.20;68.60;99623.66;4959532;28;20380;-91
2022/07/15 03:17:28;;;;;;;3.88;1.90;;;;;;;15.22;68.51;99629.66;4959373;28;20054;-92
2022/07/15 03:19:55;;;;;;;5.10;1.98;;;;;;;15.00;68.51;99595.25;4959489;28;20047;-93
2022/07/15 03:22:22;;;;;;;3.70;1.92;;;;;;;15.17;68.67;99640.44;4959531;28;20043;-92
2022/07/15 03:24:48;;;;;;;6.30;1.92;;;;;;;15.08;68.94;99627.06;4959523;28;20046;-92
2022/07/15 03:27:14;;;;;;;5.28;2.10;;;;;;;15.00;69.16;99619.72;4959315;28;20482;-91
2022/07/15 03:29:40;;;;;;;7.18;2.00;;;;;;;15.01;69.27;99633.69;4975612;28;20038;-91
2022/07/15 03:32:05;;;;;;;2.40;1.55;;;;;;;15.09;69.15;99647.16;4975682;28;20035;-92
2022/07/15 03:34:31;;;;;;;3.55;2.15;;;;;;;15.08;69.39;99659.38;4959173;28;20027;-92
2022/07/15 03:36:59;;;;;;;1.92;1.52;;;;;;;14.95;69.09;99648.00;4973699;28;20411;-92
2022/07/15 03:39:24;;;;;;;4.63;1.85;;;;;;;14.94;69.14;99643.72;4976129;28;20037;-93
2022/07/15 03:41:50;;;;;;;3.50;1.40;;;;;;;15.03;69.74;99669.34;4976447;28;20034;-92
2022/07/15 03:44:16;;;;;;;4.00;1.80;;;;;;;14.95;69.48;99654.09;4976271;28;20035;-92
2022/07/15 03:46:42;;;;;;;3.50;1.73;;;;;;;15.03;69.80;99673.75;4959898;28;20031;-93
2022/07/15 03:49:08;;;;;;;3.67;1.67;;;;;;;14.93;70.24;99666.47;4975896;28;20046;-93
2022/07/15 03:51:33;;;;;;;4.40;1.80;;;;;;;15.01;70.14;99678.28;4960023;28;20062;-92
2022/07/15 03:54:03;;;;;;;5.00;2.35;;;;;;;14.94;70.26;99665.53;4976103;28;20368;-92
2022/07/15 03:56:30;;;;;;;2.23;1.57;;;;;;;14.87;70.17;99656.38;4976245;28;20030;-93
2022/07/15 03:58:56;;;;;;;7.55;2.10;;;;;;;14.94;69.98;99667.31;4955781;29;20407;-92
2022/07/15 04:01:22;;;;;;;1.77;1.63;;;;;;;15.09;69.43;99689.13;4955449;29;20049;-92
2022/07/15 04:03:50;;;;;;;6.28;1.98;;;;;;;14.94;69.38;99660.28;4955569;29;20039;-93
2022/07/15 04:06:16;;;;;;;2.17;1.50;;;;;;;15.08;69.30;99664.63;4955424;29;20035;-91
2022/07/15 04:08:43;;;;;;;4.50;2.03;;;;;;;15.26;67.93;99688.03;4955552;28;20163;-93
2022/07/15 04:11:09;;;;;;;3.38;1.60;;;;;;;15.26;67.83;99664.41;4955711;29;20443;-92
2022/07/15 04:13:35;;;;;;;3.97;1.63;;;;;;;15.76;67.05;99676.81;4954420;28;20039;-93
2022/07/15 04:16:00;;;;;;;3.00;1.52;;;;;;;16.48;64.81;99692.03;4955372;29;20103;-92
2022/07/15 04:18:26;;;;;;;1.88;1.15;;;;;;;17.10;62.01;99691.97;4955379;29;20039;-93
2022/07/15 04:20:51;;;;;;;2.65;1.52;;;;;;;18.10;59.45;99701.19;4955441;29;20058;-94
2022/07/15 04:23:17;;;;;;;2.92;1.45;;;;;;;19.48;55.31;99692.81;4955081;29;20487;-93
2022/07/15 04:25:43;;;;;;;3.25;1.35;;;;;;;20.66;51.04;99696.88;4953434;29;20056;-93
2022/07/15 04:28:28;;;;;;;2.80;1.50;;;;;;;21.60;48.31;99703.41;4955129;29;20519;-94
2022/07/15 04:30:54;;;;;;;2.08;1.30;;;;;;;21.75;47.18;99709.13;4973029;28;20055;-93
2022/07/15 04:33:19;;;;;;;4.47;1.92;;;;;;;21.70;46.80;99698.13;4974151;28;20039;-93
2022/07/15 04:35:47;;;;;;;3.22;1.33;;;;;;;21.76;45.99;99694.06;4974385;28;20035;-94
2022/07/15 04:39:18;;;;;;;3.35;1.45;;;;;;;21.79;45.11;99705.22;4935765;29;20040;-93
2022/07/15 04:42:23;;;;;;;2.83;1.45;;;;;;;21.94;45.20;99700.28;4824237;29;20066;-92
2022/07/15 04:44:50;;;;;;;2.13;1.40;;;;;;;22.81;43.19;99688.53;4805557;29;20551;-94
2022/07/15 04:47:15;;;;;;;6.35;1.40;;;;;;;23.88;41.13;99667.28;4790395;29;20057;-92
2022/07/15 04:52:25;;;;;;;1.95;1.27;;;;;;;25.08;37.70;99692.94;4805142;29;20054;-92
2022/07/15 04:54:51;;;;;;;1.58;1.48;;;;;;;24.85;37.73;99714.84;4790239;29;20066;-92
2022/07/15 04:57:17;;;;;;;1.20;1.10;;;;;;;24.54;38.38;99719.91;4789903;29;20039;-92
2022/07/15 04:59:42;;;;;;;3.65;1.35;;;;;;;24.26;38.81;99715.72;4805094;29;20115;-92
2022/07/15 05:02:08;;;;;;;1.80;1.20;;;;;;;24.19;39.16;99722.66;4789804;29;20069;-92
2022/07/15 05:04:33;;;;;;;1.30;1.20;;;;;;;24.12;38.61;99725.13;4804742;29;20051;-92
2022/07/15 05:06:59;;;;;;;4.28;1.52;;;;;;;24.72;38.34;99733.13;4789755;29;20046;-91
2022/07/15 05:09:24;;;;;;;2.72;1.20;;;;;;;26.24;35.85;99727.50;4781740;29;20054;-92
2022/07/15 05:11:49;;;;;;;2.88;1.08;;;;;;;27.46;33.83;99732.31;4801926;29;20503;-91
2022/07/15 05:14:15;;;;;;;1.55;1.30;;;;;;;27.71;32.39;99740.16;4786717;30;20074;-92
2022/07/15 05:16:40;;;;;;;2.83;1.15;;;;;;;27.04;33.32;99735.38;4817138;29;20115;-92
2022/07/15 05:19:06;;;;;;;4.03;1.20;;;;;;;26.30;34.19;99754.34;4816502;29;20054;-91
2022/07/15 05:21:31;;;;;;;2.63;1.23;;;;;;;25.77;34.73;99761.06;4825860;29;20040;-91
2022/07/15 05:23:57;;;;;;;2.17;1.50;;;;;;;25.43;35.78;99765.69;4856489;29;20034;-92
2022/07/15 05:26:22;;;;;;;3.20;1.45;;;;;;;25.36;36.63;99750.31;4861697;29;20134;-92
2022/07/15 05:28:47;;;;;;;3.92;1.42;;;;;;;25.98;35.58;99773.91;4893248;29;20083;-92
2022/07/15 05:31:22;;;;;;;2.95;1.92;;;;;;;27.64;33.05;99757.91;4893258;29;20044;-95
2022/07/15 05:33:52;;;;;;;9.10;1.75;;;;;;;28.76;30.92;99766.91;4891166;29;20033;-95
2022/07/15 05:36:18;;;;;;;4.68;2.35;;;;;;;28.57;30.59;99761.13;4877663;29;20517;-91
2022/07/15 05:38:44;;;;;;;3.38;1.85;;;;;;;27.24;32.47;99757.19;4939237;28;20069;-92
2022/07/15 05:41:10;;;;;;;2.17;1.48;;;;;;;26.45;34.05;99762.50;4973880;28;20026;-92
2022/07/15 05:43:35;;;;;;;2.20;1.50;;;;;;;26.07;34.98;99764.06;4973723;28;20528;-92
2022/07/15 05:46:01;;;;;;;3.33;1.70;;;;;;;25.88;34.80;99775.91;4973813;28;20039;-92
2022/07/15 05:48:27;;;;;;;2.38;1.30;;;;;;;25.80;34.85;99776.75;4973477;28;20042;-92
2022/07/15 05:50:52;;;;;;;4.07;1.27;;;;;;;25.93;35.02;99788.75;4973597;28;20494;-92
2022/07/15 05:53:18;;;;;;;1.15;1.02;;;;;;;26.13;34.36;99796.25;4973277;28;20030;-91
2022/07/15 05:55:43;;;;;;;3.13;1.50;;;;;;;25.94;34.37;99793.91;4957753;28;20034;-90
2022/07/15 05:58:08;;;;;;;2.67;1.55;;;;;;;25.65;34.56;99797.03;4973854;28;20039;-91
2022/07/15 06:00:35;;;;;;;3.05;1.45;;;;;;;25.45;35.16;99796.53;4973291;28;20031;-91
2022/07/15 06:03:01;;;;;;;2.65;1.30;;;;;;;25.45;34.97;99791.19;4973259;28;20480;-92
2022/07/15 06:05:27;;;;;;;4.28;1.20;;;;;;;25.48;35.46;99779.34;4957353;28;20022;-91
2022/07/15 06:07:53;;;;;;;4.90;1.40;;;;;;;25.71;35.15;99782.22;4972080;28;20101;-92
2022/07/15 06:10:18;;;;;;;1.90;1.38;;;;;;;25.93;35.02;99792.25;4971754;28;20125;-91
2022/07/15 06:12:44;;;;;;;4.60;1.60;;;;;;;26.06;34.24;99795.25;4971819;28;20042;-91
2022/07/15 06:15:09;;;;;;;2.30;1.20;;;;;;;26.10;34.24;99785.91;4955385;28;20084;-89
2022/07/15 06:17:35;;;;;;;2.90;1.23;;;;;;;26.45;33.72;99797.22;4971063;28;20042;-89
2022/07/15 06:20:00;;;;;;;2.13;1.30;;;;;;;27.47;32.25;99781.28;4971294;28;20118;-91
2022/07/15 06:22:26;;;;;;;3.13;1.40;;;;;;;29.42;29.77;99785.69;4971286;28;20129;-91
2022/07/15 06:24:53;;;;;;;3.22;1.52;;;;;;;30.85;27.84;99800.75;4955382;28;20387;-91
2022/07/15 06:27:18;;;;;;;2.63;1.42;;;;;;;30.91;27.09;99789.19;4954930;28;20135;-91
2022/07/15 06:29:43;;;;;;;4.53;1.50;;;;;;;30.22;26.51;99798.06;4971447;28;20038;-90
2022/07/15 06:32:11;;;;;;;3.10;1.38;;;;;;;29.41;27.94;99794.75;4971444;28;20054;-91
2022/07/15 06:34:37;;;;;;;5.47;1.58;;;;;;;29.49;27.62;99800.81;4970923;28;20039;-91
2022/07/15 06:37:02;;;;;;;3.17;1.35;;;;;;;30.29;26.84;99806.97;4958322;28;20198;-91
2022/07/15 06:39:28;;;;;;;3.25;1.48;;;;;;;31.38;26.07;99800.97;4975787;28;20041;-93
2022/07/15 06:41:53;;;;;;;2.83;1.92;;;;;;;32.36;25.47;99799.41;4960066;28;20035;-92
2022/07/15 06:44:18;;;;;;;3.75;1.60;;;;;;;33.21;23.92;99802.94;4975921;28;20382;-91
2022/07/15 06:46:44;;;;;;;2.95;1.23;;;;;;;33.80;22.80;99800.97;4959345;28;20035;-91
2022/07/15 06:49:09;;;;;;;2.55;1.20;;;;;;;34.22;22.30;99810.19;4975418;28;20027;-91
2022/07/15 06:51:35;;;;;;;4.50;1.63;;;;;;;34.36;22.38;99813.59;4974968;28;20113;-92
2022/07/15 06:54:01;;;;;;;3.47;1.40;;;;;;;34.23;22.07;99813.72;4958885;28;20097;-92
2022/07/15 06:56:28;;;;;;;3.15;1.10;;;;;;;34.34;22.10;99812.97;4958782;28;20047;-92
2022/07/15 06:58:54;;;;;;;4.13;1.65;;;;;;;34.07;22.54;99811.56;4958867;28;20109;-92
2022/07/15 07:01:19;;;;;;;3.92;1.50;;;;;;;34.15;22.30;99814.00;4974745;28;20153;-90
2022/07/15 07:03:45;;;;;;;3.33;1.48;;;;;;;34.31;22.65;99821.56;4973960;28;20027;-92
2022/07/15 07:06:11;;;;;;;4.97;1.63;;;;;;;34.55;22.11;99811.75;4973937;28;20054;-92
2022/07/15 07:08:36;;;;;;;4.63;1.75;;;;;;;34.62;22.19;99807.13;4957716;28;20129;-91
2022/07/15 07:11:02;;;;;;;3.63;1.80;;;;;;;34.82;21.79;99812.31;4973503;28;20043;-90
2022/07/15 07:13:28;;;;;;;1.83;1.15;;;;;;;35.04;21.80;99820.81;4957199;28;20438;-91
2022/07/15 07:15:53;;;;;;;2.97;1.48;;;;;;;35.07;21.66;99814.97;4973269;28;20054;-88
2022/07/15 07:18:18;;;;;;;3.03;1.63;;;;;;;35.07;22.09;99812.25;4973497;28;20046;-90
2022/07/15 07:20:44;;;;;;;5.43;1.45;;;;;;;34.83;22.42;99799.59;4973036;28;20027;-91
2022/07/15 07:23:10;;;;;;;4.95;1.83;;;;;;;35.06;21.83;99805.19;4958282;28;20046;-91
2022/07/15 07:25:35;;;;;;;3.80;1.65;;;;;;;34.64;22.15;99812.28;4974420;28;20034;-90
2022/07/15 07:28:03;;;;;;;1.73;1.08;;;;;;;34.13;22.84;99810.69;4974628;28;20487;-90
2022/07/15 07:30:30;;;;;;;2.95;1.30;;;;;;;33.64;22.74;99826.63;4974897;28;20561;-93
2022/07/15 07:32:55;;;;;;;3.30;1.60;;;;;;;33.26;23.29;99811.22;4959679;28;20054;-91
2022/07/15 07:35:21;;;;;;;4.00;1.33;;;;;;;32.43;24.66;99821.00;4975125;28;20201;-91
2022/07/15 07:37:46;;;;;;;4.90;1.90;;;;;;;32.37;24.57;99827.22;4958643;28;20034;-91
2022/07/15 07:40:11;;;;;;;3.67;1.73;;;;;;;32.54;24.63;99818.50;4958628;28;20526;-92
2022/07/15 07:42:38;;;;;;;4.38;1.55;;;;;;;31.80;24.94;99808.72;4974288;28;20019;-91
2022/07/15 07:45:04;;;;;;;2.28;1.30;;;;;;;31.43;24.92;99810.09;4974278;28;20074;-91
2022/07/15 07:47:37;;;;;;;3.45;1.35;;;;;;;30.46;26.48;99811.00;4991127;28;20022;-92
2022/07/15 07:50:02;;;;;;;4.63;1.55;;;;;;;29.18;27.74;99811.84;4975389;28;20034;-92
2022/07/15 07:52:28;;;;;;;5.35;2.15;;;;;;;27.92;29.34;99817.13;4974612;28;20506;-91
2022/07/15 07:54:53;;;;;;;3.17;1.77;;;;;;;27.00;30.88;99819.59;4958937;28;20034;-90
2022/07/15 07:57:19;;;;;;;2.60;1.67;;;;;;;26.51;31.56;99822.44;4958355;28;20517;-91
2022/07/15 07:59:44;;;;;;;3.83;1.42;;;;;;;26.82;31.76;99825.19;4974118;28;20038;-90
2022/07/15 08:02:09;;;;;;;4.00;1.70;;;;;;;27.07;31.41;99820.59;4967937;28;20032;-91
2022/07/15 08:04:35;;;;;;;3.63;1.13;;;;;;;26.81;31.22;99820.88;4977707;28;20386;-91
2022/07/15 08:07:00;;;;;;;3.75;1.20;;;;;;;26.68;31.20;99815.22;4978038;28;20061;-91
2022/07/15 08:09:26;;;;;;;4.47;1.55;;;;;;;26.39;31.83;99829.94;4977917;28;20081;-91
2022/07/15 08:11:51;;;;;;;2.90;1.33;;;;;;;25.88;32.18;99824.78;4977839;28;20382;-90
2022/07/15 08:14:18;;;;;;;5.38;1.58;;;;;;;25.41;33.27;99829.00;4977032;28;20030;-91
2022/07/15 08:16:45;;;;;;;1.75;0.95;;;;;;;25.12;33.52;99830.25;4976719;28;20065;-91
2022/07/15 08:19:15;;;;;;;3.97;1.38;;;;;;;25.24;33.39;99830.75;4972565;28;20039;-91
2022/07/15 08:21:40;;;;;;;5.20;1.17;;;;;;;25.09;33.21;99822.56;4972452;28;20057;-89
2022/07/15 08:24:06;;;;;;;1.48;1.05;;;;;;;25.05;33.65;99829.19;4972646;28;20034;-90
2022/07/15 08:26:31;;;;;;;3.22;1.60;;;;;;;24.90;33.52;99834.25;4972480;28;20038;-90
2022/07/15 08:28:56;;;;;;;3.75;1.70;;;;;;;24.70;33.32;99822.19;4953229;28;20483;-91
2022/07/15 08:31:23;;;;;;;3.38;1.50;;;;;;;24.59;33.34;99842.75;4953269;29;20047;-88
2022/07/15 08:33:48;;;;;;;2.33;1.35;;;;;;;24.24;33.58;99840.16;4952861;29;20126;-88
2022/07/15 08:36:13;;;;;;;3.63;1.52;;;;;;;23.82;33.67;99841.63;4952827;29;20607;-88
2022/07/15 08:38:39;;;;;;;3.58;1.40;;;;;;;23.51;34.87;99824.31;4952347;28;20043;-88
2022/07/15 08:41:04;;;;;;;3.20;1.50;;;;;;;23.45;35.30;99846.19;4952724;29;20038;-88
2022/07/15 08:43:32;;;;;;;2.63;1.27;;;;;;;23.37;35.97;99850.41;4952276;29;20050;-89
2022/07/15 08:45:57;;;;;;;6.03;1.60;;;;;;;23.43;36.64;99830.41;4952501;28;20047;-89
2022/07/15 08:48:28;;;;;;;5.45;1.80;;;;;;;23.50;36.15;99833.28;4952411;29;20047;-89
2022/07/15 08:50:55;;;;;;;2.95;1.38;;;;;;;23.59;35.60;99843.84;4952389;29;20098;-88
2022/07/15 08:53:21;;;;;;;2.65;1.45;;;;;;;23.47;35.67;99833.56;4968444;28;20050;-89
2022/07/15 08:55:47;;;;;;;5.28;1.80;;;;;;;23.46;35.19;99853.19;4968297;28;20504;-88
2022/07/15 08:58:12;;;;;;;4.90;1.20;;;;;;;23.39;35.50;99853.78;4967981;28;20031;-88
2022/07/15 09:00:38;;;;;;;2.45;1.20;;;;;;;23.34;35.00;99855.19;5005792;28;20045;-88
2022/07/15 09:03:04;;;;;;;3.08;1.30;;;;;;;23.20;35.21;99864.50;4994142;28;20038;-89
2022/07/15 09:05:34;;;;;;;4.40;1.50;;;;;;;22.96;35.42;99843.78;4993881;28;20065;-88
2022/07/15 09:07:59;;;;;;;;;;;;;;;22.92;36.75;99866.28;5010731;28;20095;-88
2022/07/15 09:10:41;;;;;;;1.77;1.10;;;;;;;22.76;36.72;99863.41;4993731;28;20016;-88
2022/07/15 09:13:06;;;;;;;3.33;1.48;;;;;;;22.56;36.59;99839.53;4993756;28;20030;-87
2022/07/15 09:15:37;;;;;;;3.42;1.42;;;;;;;22.65;36.56;99853.78;4993423;28;20049;-89
2022/07/15 09:18:10;;;;;;;3.47;1.30;;;;;;;22.98;36.49;99849.78;5010352;28;20099;-89
2022/07/15 09:20:36;;;;;;;4.80;1.48;;;;;;;23.09;35.87;99868.22;5010104;28;20082;-89
2022/07/15 09:23:03;;;;;;;3.95;1.23;;;;;;;23.09;35.24;99860.25;4993776;28;20025;-89
2022/07/15 09:25:33;;;;;;;4.28;1.50;;;;;;;22.84;34.25;99869.66;4994001;28;20049;-90
2022/07/15 09:28:01;;;;;;;3.40;1.08;;;;;;;22.38;34.94;99838.63;4994044;28;20088;-89
2022/07/15 09:33:41;;;;;;;7.85;1.35;;;;;;;22.41;35.19;99868.34;4993114;28;20122;-88
2022/07/15 09:36:28;;;;;;;3.40;1.40;;;;;;;22.50;35.38;99857.84;4972921;28;20026;-88
2022/07/15 09:39:04;;;;;;;2.90;1.15;;;;;;;22.50;34.54;99860.50;4968512;28;20490;-89
2022/07/15 09:41:34;;;;;;;4.90;1.63;;;;;;;22.54;35.14;99867.19;4978497;28;20378;-89
2022/07/15 09:44:12;;;;;;;3.13;1.20;;;;;;;22.40;35.10;99855.22;4991692;28;20050;-87
2022/07/15 09:46:47;;;;;;;2.60;1.20;;;;;;;22.39;35.63;99872.97;4991187;28;20054;-88
2022/07/15 09:49:23;;;;;;;1.85;1.30;;;;;;;22.23;36.05;99870.03;4991694;28;20172;-90
2022/07/15 09:51:56;;;;;;;3.10;1.40;;;;;;;22.14;35.48;99865.59;4991615;28;20130;-88
2022/07/15 09:54:24;;;;;;;3.25;1.20;;;;;;;22.32;36.40;99874.50;4975057;28;20125;-90
2022/07/15 09:56:51;;;;;;;3.28;1.65;;;;;;;22.38;35.62;99873.97;4975781;28;20092;-91
2022/07/15 09:59:17;;;;;;;4.35;1.38;;;;;;;22.29;34.93;99858.88;4975957;28;20030;-91
2022/07/15 10:01:47;;;;;;;2.83;1.48;;;;;;;22.45;35.25;99871.56;4975670;28;20587;-90
2022/07/15 10:04:16;;;;;;;3.05;1.20;;;;;;;22.41;35.13;99863.03;4975482;28;20026;-90
2022/07/15 10:06:42;;;;;;;4.85;1.60;;;;;;;22.33;35.23;99862.06;4975331;28;20054;-90
2022/07/15 10:09:09;;;;;;;4.47;1.40;;;;;;;22.39;34.98;99858.88;4975629;28;20394;-91
2022/07/15 10:11:42;;;;;;;3.63;1.25;;;;;;;22.39;34.52;99880.09;4977267;28;20031;-91
2022/07/15 10:14:30;;;;;;;5.40;1.80;;;;;;;22.50;34.54;99881.75;4979442;28;20026;-89
2022/07/15 10:17:11;;;;;;;2.35;1.33;;;;;;;22.63;34.40;99877.81;4994270;28;20046;-88
2022/07/15 10:19:51;;;;;;;3.60;1.55;;;;;;;22.61;35.46;99865.66;4994096;28;20222;-90
2022/07/15 10:22:54;;;;;;;6.13;1.92;;;;;;;22.66;35.77;99872.22;4978341;28;20027;-90
2022/07/15 10:25:41;;;;;;;4.03;1.67;;;;;;;22.64;36.21;99866.22;4994336;28;20030;-90
2022/07/15 10:28:15;;;;;;;3.03;1.60;;;;;;;22.48;35.06;99855.34;4993749;28;20481;-90
2022/07/15 10:30:42;;;;;;;5.40;1.67;;;;;;;22.45;35.25;99876.84;4977573;28;20030;-90
2022/07/15 10:33:16;;;;;;;4.95;1.75;;;;;;;22.24;34.95;99878.84;4994269;28;20037;-91
2022/07/15 10:35:41;;;;;;;3.28;1.73;;;;;;;22.16;35.95;99871.56;4954251;29;20103;-91
2022/07/15 10:38:28;;;;;;;5.25;2.10;;;;;;;22.23;36.31;99879.81;4954485;29;20478;-89
2022/07/15 10:41:46;;;;;;;1.60;1.30;;;;;;;22.29;35.88;99865.97;4937786;29;20388;-90
2022/07/15 10:44:11;;;;;;;3.03;1.33;;;;;;;22.26;35.48;99864.47;4912634;29;20047;-90
2022/07/15 10:46:37;;;;;;;3.88;1.98;;;;;;;22.28;36.05;99874.94;4915512;29;20041;-93
2022/07/15 10:49:02;;;;;;;3.10;1.55;;;;;;;22.29;36.45;99869.50;4899859;29;20546;-89
2022/07/15 10:51:37;;;;;;;6.72;1.60;;;;;;;22.38;37.53;99876.59;4915896;29;20033;-91
2022/07/15 10:54:10;;;;;;;3.45;1.80;;;;;;;22.40;36.87;99866.66;4915664;29;20063;-89
2022/07/15 10:56:48;;;;;;;3.35;1.63;;;;;;;22.40;37.25;99852.56;4915362;29;20044;-92
2022/07/15 10:59:24;;;;;;;6.22;1.63;;;;;;;22.53;36.55;99847.78;4900209;29;20044;-89
2022/07/15 11:02:10;;;;;;;3.80;1.98;;;;;;;22.55;36.34;99835.22;4899516;29;20036;-90
2022/07/15 11:04:37;;;;;;;4.90;1.60;;;;;;;22.82;36.80;99862.81;4899465;29;20145;-90
2022/07/15 11:07:09;;;;;;;5.90;1.48;;;;;;;22.86;36.16;99873.00;4887489;29;20047;-89
2022/07/15 11:09:46;;;;;;;3.28;1.70;;;;;;;22.79;36.75;99876.38;4911848;29;20037;-90
2022/07/15 11:12:13;;;;;;;2.70;1.52;;;;;;;22.73;35.76;99877.78;4911826;29;20041;-88
2022/07/15 11:14:59;;;;;;;3.03;1.52;;;;;;;22.78;36.26;99880.00;4880412;29;20033;-90
2022/07/15 11:17:49;;;;;;;4.35;1.63;;;;;;;22.72;36.27;99880.59;4894350;29;1180821;-89
2022/07/15 11:20:20;;;;;;;2.80;1.70;;;;;;;22.64;36.37;99876.84;4983374;28;20039;-89
2022/07/15 11:23:28;;;;;;;5.15;1.50;;;;;;;22.69;36.43;99864.94;4978296;28;20030;-94
2022/07/15 11:25:54;;;;;;;1.80;1.25;;;;;;;22.71;35.88;99865.63;4939447;29;20051;-92
2022/07/15 11:28:21;;;;;;;4.10;1.35;;;;;;;22.75;35.55;99864.34;4939485;29;20066;-92
2022/07/15 11:30:53;;;;;;;4.07;1.50;;;;;;;22.77;34.72;99863.25;4936697;29;20039;-91
2022/07/15 11:33:25;;;;;;;6.05;1.70;;;;;;;22.78;35.32;99858.78;4955500;29;20053;-91
2022/07/15 11:35:55;;;;;;;4.53;1.60;;;;;;;22.73;34.79;99861.03;4939747;29;20081;-91
2022/07/15 11:38:27;;;;;;;2.38;1.15;;;;;;;22.46;34.70;99838.75;4939692;29;20049;-92
2022/07/15 11:46:29;;;;;;;4.47;1.50;;;;;;;22.63;34.77;99858.41;4955949;29;20100;-91
2022/07/15 11:48:54;;;;;;;7.32;2.03;;;;;;;22.67;35.38;99871.25;4941684;29;20115;-92
2022/07/15 11:51:28;;;;;;;3.55;1.70;;;;;;;22.56;35.70;99875.88;4920337;29;20555;-91